Strona główna
METAR-TAF:

METAR-TAF

Lotnisko :

Port lotniczy Curaçao

Curaçao, Antyle Holenderskie

Szerokość geograficzna: 12-12N, Długość geograficzna: 068-58W, wysokość: 9 m

Aktualna obserwacja pogody

Raport powstał 45 minut temu, godzina 06:00 UTC
Wiatr 11 kt od wschód
Temperatura 27°C
Wilgotność 84%
Ciśnienie 1015 hPa
Widzialność 10 km lub więcej
Przerywane chmury na wysokości 2400 ft

METAR: TNCC 180600Z AUTO 10011KT 9999 BKN024 27/24 Q1015

czas: 02:45 (06:45 UTC)

Prognoza

Raport powstał 2 godziny i 45 minut temu, godzina 04:00 UTC
Prognoza ważna od 18 godzina 06 UTC do 19 godzina 06 UTC
Wiatr 13 kt od wschód
Widzialność 10 km lub więcej
Rozproszone chmury na wysokości 1800 ft
Od 1400 UTC
Wiatr 17 kt od wschodnio-południowy wschód w porywach dochodzący do 30 kt

TAF: TNCC 180400Z 1806/1906 10013KT 9999 SCT018 FM1400 11017G30KT

Obserwacja i prognoza pogody dla ponad 4000 lotnisk (raport METAR i TAF).

Dostępne stacje oznaczono żółtymi i czerwonymi punktami na mapie.

Najedź kursorem aby zobaczyć nazwę stacji.

Kliknij aby zobaczyć obserwacje i prognozy pogody.

Aby zmienić mapę: kliknij na zielony przycisk z czarnym krzyżykiem, aby powiększyć; na zielony przycisk z myślnikiem, aby pomniejszyć; na zielone strzałki, aby przejść do map sąsiednich.


METAR-TAF: